KFTW/FTW METAR and TAF weather

Enter ICAO airport designator
Station Type Date Time Source
KFTW METAR 2021/09/23 17:53 UTC NOAA

KFTW 231753Z 00000KT 10SM CLR 26/03 A3011 RMK AO2 SLP191 T02610033 10267 20128 58013


Station Type Date Time Source
KFTW Decoded METAR 2021/09/23 17:53 UTC NOAA

FORT WORTH MEACHAM INTERNATIONAL ., TX, United States (KFTW) 32-50N 097-22W 214M
Sep 23, 2021 - 01:53 PM EDT / 2021.09.23 1753 UTC
Wind: Calm:0
Visibility: 10 mile(s):0
Sky conditions: clear
Temperature: 79.0 F (26.1 C)
Dew Point: 37.9 F (3.3 C)
Relative Humidity: 22%
Pressure (altimeter): 30.11 in. Hg (1019 hPa)
Pressure tendency: 0.04 inches (1.3 hPa) lower than three hours ago
ob: KFTW 231753Z 00000KT 10SM CLR 26/03 A3011 RMK AO2 SLP191 T02610033 10267 20128 58013
cycle: 18

Station Type Date Time Source
KFTW TAF 2021/09/23 18:22 UTC NOAA

TAF KFTW 231720Z 2318/2418 15005KT P6SM FEW250

Example: see airport list